Time;durP1;ratioP1;P1;durP2;ratioP2;P2;SDS_P1;SDS_P2;PMS_P1;PMS_P2;Temp;Humidity;BMP_temperature;BMP_pressure;BME280_temperature;BME280_humidity;BME280_pressure;Samples;Min_cycle;Max_cycle;Signal;HPM_P1;HPM_P2
2021/08/27 00:00:46;;;;;;;9.93;2.20;;;15.50;90.90;;;;;;5050774;28;20051;-71
2021/08/27 00:03:11;;;;;;;9.60;2.33;;;15.40;92.00;;;;;;5052332;28;20048;-71
2021/08/27 00:05:37;;;;;;;8.40;1.90;;;15.20;92.20;;;;;;5052046;28;20036;-70
2021/08/27 00:08:03;;;;;;;11.20;2.50;;;15.00;92.70;;;;;;5051227;28;20049;-69
2021/08/27 00:10:28;;;;;;;11.03;2.53;;;14.80;93.20;;;;;;5052484;28;20037;-70
2021/08/27 00:12:54;;;;;;;6.03;2.30;;;14.80;93.60;;;;;;5051712;28;20438;-70
2021/08/27 00:15:20;;;;;;;9.00;2.47;;;14.70;94.10;;;;;;5050215;28;20041;-70
2021/08/27 00:17:45;;;;;;;10.23;2.00;;;14.70;94.20;;;;;;5051652;28;20174;-70
2021/08/27 00:20:11;;;;;;;7.97;2.23;;;14.70;94.40;;;;;;5051687;28;20049;-70
2021/08/27 00:22:37;;;;;;;8.03;2.07;;;14.60;94.70;;;;;;5051605;28;20052;-69
2021/08/27 00:25:04;;;;;;;8.60;2.23;;;14.60;94.80;;;;;;5051630;28;20042;-69
2021/08/27 00:27:29;;;;;;;9.87;3.20;;;14.60;94.60;;;;;;5051835;28;20119;-69
2021/08/27 00:29:55;;;;;;;8.07;2.00;;;14.60;94.70;;;;;;5050819;28;20131;-70
2021/08/27 00:32:21;;;;;;;14.30;2.67;;;14.60;94.70;;;;;;5051487;28;20041;-69
2021/08/27 00:34:47;;;;;;;10.00;2.30;;;14.60;94.80;;;;;;5050403;28;20541;-70
2021/08/27 00:37:12;;;;;;;11.47;2.60;;;14.60;94.80;;;;;;5051167;28;20045;-70
2021/08/27 00:39:38;;;;;;;12.30;2.87;;;14.60;94.80;;;;;;5051634;28;20033;-70
2021/08/27 00:42:03;;;;;;;10.93;2.77;;;14.60;94.90;;;;;;5052048;28;20619;-70
2021/08/27 00:44:29;;;;;;;10.33;2.30;;;14.60;94.90;;;;;;5050921;28;20047;-70
2021/08/27 00:46:55;;;;;;;8.40;2.10;;;14.60;94.90;;;;;;5050148;28;20124;-71
2021/08/27 00:49:20;;;;;;;9.13;1.93;;;14.50;94.90;;;;;;5051754;28;20040;-72
2021/08/27 00:51:46;;;;;;;15.07;2.70;;;14.50;95.00;;;;;;5050832;28;20044;-70
2021/08/27 00:54:12;;;;;;;9.27;2.50;;;14.50;95.00;;;;;;5050306;28;20049;-70
2021/08/27 00:56:38;;;;;;;9.13;2.60;;;14.50;95.00;;;;;;5051801;28;20041;-70
2021/08/27 00:59:03;;;;;;;9.80;2.50;;;14.50;95.00;;;;;;5050738;28;20351;-71
2021/08/27 01:01:29;;;;;;;9.10;2.33;;;14.40;95.10;;;;;;5051465;28;20048;-70
2021/08/27 01:03:59;;;;;;;7.50;2.07;;;14.50;95.10;;;;;;5050562;28;20033;-70
2021/08/27 01:06:49;;;;;;;10.53;2.67;;;14.50;94.90;;;;;;5050293;28;20053;-71
2021/08/27 01:09:30;;;;;;;7.13;2.40;;;14.50;94.50;;;;;;5051591;28;20120;-71
2021/08/27 01:12:23;;;;;;;6.05;2.00;;;14.60;94.20;;;;;;5053920;28;20045;-70
2021/08/27 01:14:53;;;;;;;6.60;2.43;;;14.60;94.00;;;;;;5035535;28;20401;-70
2021/08/27 01:17:24;;;;;;;5.30;1.90;;;14.70;93.80;;;;;;5055189;28;20183;-71
2021/08/27 01:20:14;;;;;;;5.30;3.10;;;14.70;93.60;;;;;;5052843;28;20079;-71
2021/08/27 01:22:58;;;;;;;12.33;2.60;;;14.80;93.60;;;;;;5054911;28;20048;-70
2021/08/27 01:25:24;;;;;;;11.97;3.20;;;14.80;93.50;;;;;;5054155;28;20052;-70
2021/08/27 01:27:52;;;;;;;7.27;2.67;;;14.80;93.40;;;;;;5054901;28;20066;-71
2021/08/27 01:30:28;;;;;;;10.27;2.70;;;14.80;93.40;;;;;;5055141;28;20076;-71
2021/08/27 01:33:01;;;;;;;13.33;2.40;;;14.80;93.30;;;;;;5054038;28;20505;-70
2021/08/27 01:35:30;;;;;;;6.73;2.67;;;14.80;93.30;;;;;;5055035;28;20049;-71
2021/08/27 01:37:57;;;;;;;10.20;2.47;;;14.80;93.30;;;;;;5052927;28;20059;-70
2021/08/27 01:40:26;;;;;;;9.43;2.20;;;14.80;93.30;;;;;;5053977;28;20478;-69
2021/08/27 01:42:53;;;;;;;13.53;2.63;;;14.90;93.50;;;;;;5054930;28;20134;-69
2021/08/27 01:45:19;;;;;;;10.13;1.90;;;14.80;93.60;;;;;;5054937;28;20072;-69
2021/08/27 01:47:46;;;;;;;8.50;2.30;;;14.80;93.90;;;;;;5053800;28;20052;-69
2021/08/27 01:50:13;;;;;;;6.43;2.60;;;14.80;94.00;;;;;;5054590;28;20037;-69
2021/08/27 01:52:39;;;;;;;9.90;2.00;;;14.80;94.20;;;;;;5054552;28;20052;-69
2021/08/27 01:55:09;;;;;;;8.07;2.17;;;14.70;94.30;;;;;;5054023;28;20044;-70
2021/08/27 01:57:36;;;;;;;8.53;2.00;;;14.70;94.30;;;;;;5054538;28;20052;-69
2021/08/27 02:00:05;;;;;;;9.13;2.10;;;14.70;94.40;;;;;;5054119;28;20037;-70
2021/08/27 02:02:32;;;;;;;8.70;2.33;;;14.80;94.40;;;;;;5054470;28;20044;-70
2021/08/27 02:05:01;;;;;;;7.73;2.00;;;14.70;94.50;;;;;;5054177;28;20123;-70
2021/08/27 02:07:27;;;;;;;10.33;2.27;;;14.70;94.50;;;;;;5054227;28;20437;-70
2021/08/27 02:09:55;;;;;;;11.40;2.17;;;14.70;94.50;;;;;;5054273;28;20041;-70
2021/08/27 02:12:22;;;;;;;7.63;1.93;;;14.70;94.50;;;;;;5054396;28;20079;-70
2021/08/27 02:14:53;;;;;;;10.63;2.03;;;14.70;94.50;;;;;;5053130;28;20055;-70
2021/08/27 02:17:19;;;;;;;12.27;2.00;;;14.70;94.50;;;;;;5054198;28;20037;-70
2021/08/27 02:19:45;;;;;;;10.00;2.20;;;14.70;94.40;;;;;;5053442;28;20459;-70
2021/08/27 02:22:14;;;;;;;10.60;2.30;;;14.70;94.50;;;;;;5052444;28;20143;-71
2021/08/27 02:24:44;;;;;;;9.80;2.00;;;14.70;94.50;;;;;;5052719;28;20478;-71
2021/08/27 02:27:11;;;;;;;18.67;2.87;;;14.70;94.50;;;;;;5054077;28;20201;-69
2021/08/27 02:29:38;;;;;;;11.07;2.23;;;14.70;94.40;;;;;;5053125;28;20045;-70
2021/08/27 02:32:07;;;;;;;9.30;2.00;;;14.80;94.20;;;;;;5054240;28;20386;-71
2021/08/27 02:34:37;;;;;;;12.03;2.50;;;14.80;94.10;;;;;;5053878;28;20501;-70
2021/08/27 02:37:05;;;;;;;12.70;2.67;;;14.80;94.00;;;;;;5052811;28;20041;-71
2021/08/27 02:39:30;;;;;;;7.77;2.50;;;14.80;94.00;;;;;;5053849;28;20506;-70
2021/08/27 02:41:57;;;;;;;13.80;2.43;;;14.80;94.10;;;;;;5052148;28;20122;-70
2021/08/27 02:44:25;;;;;;;10.27;2.37;;;14.80;94.10;;;;;;5052832;28;20047;-70
2021/08/27 02:46:53;;;;;;;11.03;2.53;;;14.80;94.30;;;;;;5053130;28;20068;-71
2021/08/27 02:49:19;;;;;;;8.53;2.43;;;14.80;94.30;;;;;;5052987;28;20493;-71
2021/08/27 02:52:12;;;;;;;9.77;2.03;;;14.80;94.30;;;;;;5053401;28;20075;-71
2021/08/27 02:55:11;;;;;;;10.33;1.97;;;14.80;94.30;;;;;;5054451;28;20049;-69
2021/08/27 02:57:50;;;;;;;13.77;3.43;;;14.90;94.30;;;;;;5052717;28;20201;-69
2021/08/27 03:00:18;;;;;;;10.37;2.60;;;14.90;94.40;;;;;;5053274;28;20048;-69
2021/08/27 03:02:46;;;;;;;14.60;2.87;;;14.80;94.50;;;;;;5053145;28;20104;-69
2021/08/27 03:05:20;;;;;;;8.47;2.70;;;14.80;94.60;;;;;;5052579;28;20044;-69
2021/08/27 03:07:56;;;;;;;8.90;2.30;;;14.80;94.80;;;;;;5052989;28;20125;-70
2021/08/27 03:10:50;;;;;;;9.20;2.03;;;14.80;94.90;;;;;;5052327;28;20544;-69
2021/08/27 03:13:23;;;;;;;11.37;1.70;;;14.80;95.10;;;;;;5053098;28;20080;-70
2021/08/27 03:15:58;;;;;;;7.60;1.57;;;14.80;95.10;;;;;;5052678;28;20159;-70
2021/08/27 03:18:39;;;;;;;6.27;1.57;;;14.80;95.20;;;;;;5052642;28;20041;-69
2021/08/27 03:21:22;;;;;;;8.73;2.10;;;14.80;95.10;;;;;;5052720;28;20506;-70
2021/08/27 03:23:49;;;;;;;6.37;1.90;;;14.80;95.20;;;;;;5052765;28;20045;-70
2021/08/27 03:26:23;;;;;;;10.93;2.17;;;14.80;95.10;;;;;;5052078;28;20044;-70
2021/08/27 03:28:57;;;;;;;11.37;2.00;;;14.80;95.20;;;;;;5052674;28;20351;-70
2021/08/27 03:31:25;;;;;;;8.13;1.70;;;14.80;95.30;;;;;;5052853;28;20056;-70
2021/08/27 03:33:53;;;;;;;9.03;1.87;;;14.70;95.30;;;;;;5051403;28;20041;-70
2021/08/27 03:36:19;;;;;;;16.03;3.03;;;14.80;95.30;;;;;;5052691;28;20071;-70
2021/08/27 03:38:45;;;;;;;10.43;2.50;;;14.80;95.30;;;;;;5051327;28;20158;-70
2021/08/27 03:41:10;;;;;;;16.47;2.53;;;14.80;95.20;;;;;;5052476;28;20057;-70
2021/08/27 03:43:40;;;;;;;11.60;2.10;;;14.70;95.30;;;;;;5052446;28;20091;-70
2021/08/27 03:46:06;;;;;;;12.33;2.57;;;14.80;95.30;;;;;;5051644;28;20056;-70
2021/08/27 03:48:34;;;;;;;11.40;3.00;;;14.70;95.20;;;;;;5052540;28;20052;-70
2021/08/27 03:51:01;;;;;;;10.80;2.50;;;14.70;95.20;;;;;;5052030;28;20061;-70
2021/08/27 03:53:27;;;;;;;11.00;2.73;;;14.70;95.30;;;;;;5051716;28;20044;-70
2021/08/27 03:55:53;;;;;;;10.27;2.30;;;14.70;95.30;;;;;;5052134;28;20041;-70
2021/08/27 03:58:21;;;;;;;10.53;2.27;;;14.70;95.30;;;;;;5052412;28;20063;-70
2021/08/27 04:00:49;;;;;;;9.73;2.83;;;14.60;95.40;;;;;;5051003;28;20512;-70
2021/08/27 04:03:17;;;;;;;10.37;2.70;;;14.70;95.50;;;;;;5052173;28;20041;-70
2021/08/27 04:06:03;;;;;;;9.83;2.70;;;14.60;95.50;;;;;;5052166;28;20047;-70
2021/08/27 04:08:33;;;;;;;12.67;2.67;;;14.70;95.50;;;;;;5051819;28;20052;-70
2021/08/27 04:10:58;;;;;;;13.93;2.30;;;14.70;95.60;;;;;;5051660;28;20052;-70
2021/08/27 04:13:24;;;;;;;12.47;2.80;;;14.70;95.60;;;;;;5051988;28;20045;-70
2021/08/27 04:15:50;;;;;;;12.23;2.50;;;14.70;95.60;;;;;;5051134;28;20056;-70
2021/08/27 04:18:15;;;;;;;12.27;2.90;;;14.70;95.60;;;;;;5051952;28;20036;-70
2021/08/27 04:20:41;;;;;;;10.57;2.33;;;14.70;95.60;;;;;;5050484;28;20072;-71
2021/08/27 04:23:06;;;;;;;8.73;2.57;;;14.70;95.60;;;;;;5050760;28;20359;-70
2021/08/27 04:25:32;;;;;;;11.87;2.83;;;14.70;95.60;;;;;;5049978;28;20080;-70
2021/08/27 04:27:58;;;;;;;11.87;2.93;;;14.70;95.60;;;;;;5050518;28;20098;-70
2021/08/27 04:30:26;;;;;;;10.80;2.63;;;14.70;95.50;;;;;;5051341;28;20124;-70
2021/08/27 04:32:52;;;;;;;8.27;2.40;;;14.80;95.40;;;;;;5051613;28;20128;-70
2021/08/27 04:35:17;;;;;;;12.70;3.00;;;14.80;95.40;;;;;;5051499;28;20129;-70
2021/08/27 04:37:43;;;;;;;6.97;1.87;;;14.80;95.20;;;;;;5051530;28;20095;-70
2021/08/27 04:40:09;;;;;;;7.37;2.33;;;14.80;95.00;;;;;;5051698;28;20122;-70
2021/08/27 04:42:34;;;;;;;9.57;2.10;;;14.80;94.90;;;;;;5051450;28;20077;-70
2021/08/27 04:45:00;;;;;;;8.97;1.93;;;14.80;94.80;;;;;;5053195;28;20107;-70
2021/08/27 04:47:26;;;;;;;12.77;2.47;;;14.90;94.80;;;;;;5058309;28;20045;-69
2021/08/27 04:49:51;;;;;;;10.97;2.77;;;14.90;94.70;;;;;;5057160;28;20117;-70
2021/08/27 04:52:17;;;;;;;12.77;2.60;;;14.90;94.70;;;;;;5057077;28;20045;-70
2021/08/27 04:54:42;;;;;;;14.10;3.07;;;14.90;94.60;;;;;;5058134;28;20132;-70
2021/08/27 04:57:08;;;;;;;12.60;2.43;;;14.90;94.60;;;;;;5057411;28;20081;-70
2021/08/27 04:59:34;;;;;;;12.07;2.80;;;14.90;94.50;;;;;;5058434;28;20447;-70
2021/08/27 05:01:59;;;;;;;11.27;3.23;;;14.90;94.40;;;;;;5057898;28;20040;-70
2021/08/27 05:04:27;;;;;;;10.20;2.50;;;15.00;94.40;;;;;;5056475;28;20045;-70
2021/08/27 05:06:53;;;;;;;11.00;2.33;;;15.00;94.30;;;;;;5058190;28;20044;-70
2021/08/27 05:09:19;;;;;;;13.53;2.90;;;15.00;94.20;;;;;;5058235;28;20049;-70
2021/08/27 05:11:45;;;;;;;11.00;2.43;;;15.00;94.10;;;;;;5055591;28;20045;-71
2021/08/27 05:14:12;;;;;;;9.20;1.93;;;15.10;94.00;;;;;;5056534;28;20199;-70
2021/08/27 05:16:37;;;;;;;15.07;3.00;;;15.10;93.90;;;;;;5057965;28;20040;-70
2021/08/27 05:19:03;;;;;;;12.93;1.70;;;15.10;93.80;;;;;;5057321;28;20045;-70
2021/08/27 05:21:29;;;;;;;12.93;2.70;;;15.10;93.80;;;;;;5057710;28;20401;-70
2021/08/27 05:23:55;;;;;;;12.83;2.80;;;15.10;93.70;;;;;;5057763;28;20104;-70
2021/08/27 05:26:21;;;;;;;10.47;2.43;;;15.20;94.10;;;;;;5057224;28;20533;-70
2021/08/27 05:28:47;;;;;;;7.53;2.30;;;15.20;93.70;;;;;;5056275;28;20120;-70
2021/08/27 05:31:13;;;;;;;9.07;2.23;;;15.20;93.70;;;;;;5056839;28;20072;-70
2021/08/27 05:33:39;;;;;;;8.23;2.30;;;15.20;93.70;;;;;;5057671;28;20049;-70
2021/08/27 05:36:05;;;;;;;9.53;2.40;;;15.20;93.60;;;;;;5057712;28;20044;-70
2021/08/27 05:38:31;;;;;;;10.97;2.33;;;15.30;93.70;;;;;;5057196;28;20090;-70
2021/08/27 05:40:57;;;;;;;12.83;2.40;;;15.30;93.60;;;;;;5057400;28;20052;-70
2021/08/27 05:43:22;;;;;;;12.97;3.17;;;15.30;93.60;;;;;;5057634;28;20036;-69
2021/08/27 05:45:48;;;;;;;13.70;2.70;;;15.30;93.60;;;;;;5056787;28;20094;-70
2021/08/27 05:48:13;;;;;;;11.77;2.80;;;15.30;93.60;;;;;;5057535;28;20394;-70
2021/08/27 05:50:39;;;;;;;11.23;2.57;;;15.30;93.50;;;;;;5057329;28;20390;-71
2021/08/27 05:53:05;;;;;;;11.37;2.40;;;15.30;93.50;;;;;;5056924;28;20102;-70
2021/08/27 05:55:30;;;;;;;12.87;2.40;;;15.30;93.50;;;;;;5056287;28;20044;-70
2021/08/27 05:57:56;;;;;;;9.70;1.90;;;15.30;93.50;;;;;;5054416;28;20070;-70
2021/08/27 06:00:22;;;;;;;10.83;2.33;;;15.40;93.50;;;;;;5053673;28;20052;-70
2021/08/27 06:02:48;;;;;;;11.07;1.93;;;15.40;93.50;;;;;;5054201;28;20048;-70
2021/08/27 06:05:13;;;;;;;14.57;2.87;;;15.40;93.50;;;;;;5054302;28;20049;-70
2021/08/27 06:07:39;;;;;;;11.77;2.37;;;15.40;93.50;;;;;;5053352;28;20139;-70
2021/08/27 06:10:08;;;;;;;11.07;2.50;;;15.40;93.80;;;;;;5054971;28;20472;-69
2021/08/27 06:12:33;;;;;;;9.70;2.10;;;15.30;94.20;;;;;;5054468;28;20053;-69
2021/08/27 06:14:59;;;;;;;10.57;2.60;;;15.20;94.60;;;;;;5053112;28;20102;-70
2021/08/27 06:17:24;;;;;;;9.73;2.10;;;15.10;95.40;;;;;;5054362;28;20394;-69
2021/08/27 06:19:50;;;;;;;12.20;1.87;;;15.10;95.30;;;;;;5053629;28;20128;-69
2021/08/27 06:22:16;;;;;;;11.50;2.27;;;15.10;95.70;;;;;;5053160;28;20501;-69
2021/08/27 06:24:41;;;;;;;10.07;1.90;;;15.10;95.80;;;;;;5053802;28;20040;-69
2021/08/27 06:27:07;;;;;;;16.37;3.07;;;15.10;96.10;;;;;;5053810;28;20033;-69
2021/08/27 06:29:33;;;;;;;9.80;1.83;;;15.10;96.00;;;;;;5053057;28;20043;-69
2021/08/27 06:31:59;;;;;;;11.20;2.00;;;15.10;96.10;;;;;;5053755;28;20045;-69
2021/08/27 06:34:25;;;;;;;11.03;1.70;;;15.10;96.00;;;;;;5053422;28;20116;-70
2021/08/27 06:36:51;;;;;;;7.83;1.90;;;15.10;96.00;;;;;;5053754;28;20041;-70
2021/08/27 06:39:16;;;;;;;10.03;2.33;;;15.20;95.90;;;;;;5053810;28;20048;-71
2021/08/27 06:41:42;;;;;;;13.17;2.00;;;15.20;95.70;;;;;;5052352;28;20230;-70
2021/08/27 06:44:07;;;;;;;13.93;1.67;;;15.30;95.70;;;;;;5052678;28;20049;-70
2021/08/27 06:46:33;;;;;;;9.73;2.00;;;15.30;95.60;;;;;;5053511;28;20056;-70
2021/08/27 06:48:59;;;;;;;10.27;1.63;;;15.30;95.60;;;;;;5052592;28;20045;-70
2021/08/27 06:51:24;;;;;;;11.13;1.90;;;15.30;95.60;;;;;;5053326;28;20037;-70
2021/08/27 06:53:53;;;;;;;11.17;1.97;;;15.30;95.60;;;;;;5053139;28;20056;-70
2021/08/27 06:56:23;;;;;;;12.77;2.07;;;15.30;95.70;;;;;;5052541;28;20045;-70
2021/08/27 06:58:49;;;;;;;12.27;2.27;;;15.30;95.80;;;;;;5052801;28;20055;-70
2021/08/27 07:01:14;;;;;;;10.67;1.47;;;15.40;96.00;;;;;;5053113;28;20140;-70
2021/08/27 07:03:40;;;;;;;13.20;1.90;;;15.40;96.00;;;;;;5052358;28;20084;-71
2021/08/27 07:06:05;;;;;;;9.07;1.93;;;15.40;96.00;;;;;;5053253;28;20471;-70
2021/08/27 07:08:31;;;;;;;10.27;1.80;;;15.50;96.10;;;;;;5052509;28;20040;-71
2021/08/27 07:10:57;;;;;;;13.63;2.07;;;15.50;96.10;;;;;;5051051;28;20123;-71
2021/08/27 07:13:22;;;;;;;13.93;1.73;;;15.60;96.20;;;;;;5051553;28;20055;-70
2021/08/27 07:15:48;;;;;;;13.43;2.50;;;15.60;96.10;;;;;;5052841;28;20072;-70
2021/08/27 07:18:14;;;;;;;13.37;2.53;;;15.70;96.10;;;;;;5052066;28;20509;-70
2021/08/27 07:20:39;;;;;;;12.03;2.10;;;15.60;96.20;;;;;;5052173;28;20056;-70
2021/08/27 07:23:05;;;;;;;14.97;2.30;;;15.70;96.10;;;;;;5052857;28;20127;-69
2021/08/27 07:25:31;;;;;;;13.57;2.90;;;15.60;96.10;;;;;;5052295;28;20040;-69
2021/08/27 07:27:57;;;;;;;18.13;3.60;;;15.60;96.30;;;;;;5051105;28;20367;-69
2021/08/27 07:30:22;;;;;;;11.03;2.63;;;15.60;96.50;;;;;;5051526;28;20512;-69
2021/08/27 07:32:48;;;;;;;12.27;2.27;;;15.60;96.90;;;;;;5050991;28;20041;-69
2021/08/27 07:35:14;;;;;;;10.33;2.00;;;15.60;97.20;;;;;;5052449;28;20076;-68
2021/08/27 07:37:41;;;;;;;15.83;2.53;;;15.60;97.20;;;;;;5051606;28;20047;-69
2021/08/27 07:40:09;;;;;;;15.40;2.27;;;15.60;97.40;;;;;;5052129;28;20049;-69
2021/08/27 07:42:35;;;;;;;10.90;1.70;;;15.60;97.40;;;;;;5051960;28;20057;-69
2021/08/27 07:45:00;;;;;;;10.23;2.23;;;15.70;97.30;;;;;;5051158;28;20052;-68
2021/08/27 07:47:26;;;;;;;7.73;1.93;;;15.70;97.20;;;;;;5052202;28;20045;-68
2021/08/27 07:49:52;;;;;;;7.33;1.97;;;15.70;97.10;;;;;;5050605;28;20048;-69
2021/08/27 07:52:17;;;;;;;9.10;1.63;;;15.60;96.90;;;;;;5044842;28;20401;-69
2021/08/27 07:54:43;;;;;;;7.63;1.90;;;15.60;96.70;;;;;;5046884;28;20106;-70
2021/08/27 07:57:08;;;;;;;7.30;1.73;;;15.50;96.60;;;;;;5048320;28;20197;-68
2021/08/27 07:59:34;;;;;;;11.83;2.83;;;15.50;96.50;;;;;;5047532;28;20071;-69
2021/08/27 08:01:59;;;;;;;8.63;2.10;;;15.50;97.00;;;;;;5048445;28;20358;-67
2021/08/27 08:04:25;;;;;;;8.93;1.97;;;15.40;96.60;;;;;;5048393;28;20250;-68
2021/08/27 08:06:51;;;;;;;7.43;1.80;;;15.40;96.80;;;;;;5047213;28;20041;-70
2021/08/27 08:09:16;;;;;;;9.47;1.87;;;15.40;96.90;;;;;;5048063;28;20063;-71
2021/08/27 08:11:42;;;;;;;10.80;1.73;;;15.30;96.80;;;;;;5048431;28;20033;-69
2021/08/27 08:14:07;;;;;;;10.83;1.93;;;15.40;96.90;;;;;;5046773;28;20049;-72
2021/08/27 08:16:33;;;;;;;10.07;2.00;;;15.40;97.00;;;;;;5048229;28;20538;-69
2021/08/27 08:18:58;;;;;;;9.77;2.23;;;15.50;97.30;;;;;;5048037;28;20102;-70
2021/08/27 08:21:24;;;;;;;8.00;2.10;;;15.60;97.50;;;;;;5046438;28;20513;-70
2021/08/27 08:23:51;;;;;;;6.90;1.90;;;15.70;97.20;;;;;;5047891;28;20136;-69
2021/08/27 08:26:19;;;;;;;13.23;1.93;;;15.80;97.20;;;;;;5047392;28;20053;-67
2021/08/27 08:28:45;;;;;;;10.83;2.03;;;15.80;97.10;;;;;;5047321;28;20079;-68
2021/08/27 08:31:16;;;;;;;12.30;2.50;;;15.90;97.10;;;;;;5047690;28;20040;-68
2021/08/27 08:33:42;;;;;;;;;;;15.90;97.00;;;;;;5047752;28;20044;-69
2021/08/27 08:36:08;;;;;;;7.70;2.17;;;15.90;96.80;;;;;;5045859;28;20239;-68
2021/08/27 08:38:33;;;;;;;7.90;1.90;;;15.90;96.80;;;;;;5048129;28;20143;-67
2021/08/27 08:40:59;;;;;;;10.47;2.17;;;16.00;96.90;;;;;;5046251;28;20052;-67
2021/08/27 08:43:24;;;;;;;11.13;2.47;;;16.10;96.90;;;;;;5047565;28;20485;-67
2021/08/27 08:45:51;;;;;;;10.00;2.10;;;16.20;96.90;;;;;;5048030;28;20068;-68
2021/08/27 08:48:20;;;;;;;10.40;2.20;;;16.40;96.80;;;;;;5046174;28;20125;-68
2021/08/27 08:50:46;;;;;;;14.53;3.43;;;16.60;96.20;;;;;;5046746;28;20352;-69
2021/08/27 08:53:13;;;;;;;11.67;2.33;;;16.80;96.10;;;;;;5047489;28;20450;-69
2021/08/27 08:55:42;;;;;;;9.17;2.57;;;16.90;95.80;;;;;;5047075;28;20498;-70
2021/08/27 08:58:08;;;;;;;11.80;2.60;;;17.00;95.60;;;;;;5047498;28;20538;-68
2021/08/27 09:00:37;;;;;;;9.13;2.80;;;17.10;94.90;;;;;;5047303;28;20431;-68
2021/08/27 09:03:03;;;;;;;9.13;3.27;;;17.20;94.50;;;;;;5046210;28;20494;-68
2021/08/27 09:05:29;;;;;;;11.77;2.60;;;17.30;94.40;;;;;;5048051;28;20057;-69
2021/08/27 09:07:55;;;;;;;12.13;2.80;;;17.20;93.90;;;;;;5046853;28;20052;-70
2021/08/27 09:10:22;;;;;;;7.83;2.73;;;17.20;92.80;;;;;;5046710;28;20462;-69
2021/08/27 09:12:49;;;;;;;9.17;2.27;;;17.10;92.30;;;;;;5046516;28;20124;-69
2021/08/27 09:15:18;;;;;;;8.37;2.80;;;17.00;92.00;;;;;;5047657;28;20534;-70
2021/08/27 09:17:46;;;;;;;9.90;2.23;;;17.00;92.20;;;;;;5046419;28;20049;-71
2021/08/27 09:20:17;;;;;;;10.93;2.80;;;17.00;92.30;;;;;;5046717;28;20076;-71
2021/08/27 09:22:50;;;;;;;11.07;2.17;;;17.00;92.20;;;;;;5047650;28;20564;-72
2021/08/27 09:25:48;;;;;;;11.27;2.10;;;17.10;91.60;;;;;;5046552;28;20040;-71
2021/08/27 09:28:16;;;;;;;9.57;2.37;;;17.10;91.70;;;;;;5024652;28;20049;-71
2021/08/27 09:30:54;;;;;;;5.93;1.43;;;17.10;91.30;;;;;;5045001;28;20043;-70
2021/08/27 09:33:29;;;;;;;8.23;1.73;;;17.00;90.70;;;;;;5050685;28;20060;-70
2021/08/27 09:36:01;;;;;;;7.83;2.03;;;17.00;90.70;;;;;;5050878;28;20077;-72
2021/08/27 09:38:34;;;;;;;8.23;2.97;;;17.00;91.00;;;;;;5050338;28;20426;-71
2021/08/27 09:41:11;;;;;;;6.67;1.80;;;17.10;90.70;;;;;;5049499;28;20517;-73
2021/08/27 09:43:57;;;;;;;6.10;2.27;;;17.30;90.00;;;;;;5049104;28;20045;-72
2021/08/27 09:46:29;;;;;;;9.10;1.80;;;17.40;89.30;;;;;;5049223;28;20087;-71
2021/08/27 09:48:54;;;;;;;10.87;2.13;;;17.50;89.30;;;;;;5050107;28;20417;-70
2021/08/27 09:51:44;;;;;;;9.50;2.23;;;17.60;88.40;;;;;;5049663;28;20041;-71
2021/08/27 09:54:40;;;;;;;8.90;2.63;;;17.70;87.80;;;;;;5050576;28;20470;-72
2021/08/27 09:57:07;;;;;;;7.23;2.03;;;17.60;84.90;;;;;;5050157;28;20052;-71
2021/08/27 09:59:46;;;;;;;7.60;1.97;;;17.50;87.00;;;;;;5050434;28;20041;-71
2021/08/27 10:02:15;;;;;;;5.33;1.50;;;17.30;88.20;;;;;;5049985;28;20470;-71
2021/08/27 10:04:52;;;;;;;7.00;1.47;;;17.10;89.30;;;;;;5050497;28;20055;-72
2021/08/27 10:07:37;;;;;;;4.47;1.27;;;16.90;89.10;;;;;;5048131;28;20037;-71
2021/08/27 10:10:06;;;;;;;7.00;1.80;;;16.90;89.10;;;;;;5050325;28;20160;-71
2021/08/27 10:12:34;;;;;;;6.07;1.50;;;16.90;89.60;;;;;;5049537;28;20044;-71
2021/08/27 10:15:00;;;;;;;6.77;1.90;;;16.90;89.50;;;;;;5048416;28;20080;-71
2021/08/27 10:17:27;;;;;;;9.03;2.00;;;17.00;89.80;;;;;;5052298;28;20040;-71
2021/08/27 10:19:52;;;;;;;8.20;2.23;;;17.10;89.60;;;;;;5052753;28;20048;-72
2021/08/27 10:22:18;;;;;;;9.77;2.17;;;17.30;89.30;;;;;;5054137;28;20045;-72
2021/08/27 10:24:46;;;;;;;8.50;1.73;;;17.40;88.90;;;;;;5052471;28;20465;-72
2021/08/27 10:27:14;;;;;;;9.23;2.00;;;17.70;88.70;;;;;;5051753;28;20162;-72
2021/08/27 10:29:52;;;;;;;4.93;1.40;;;17.90;87.40;;;;;;5052663;28;20557;-72
2021/08/27 10:32:39;;;;;;;8.57;1.77;;;17.80;85.60;;;;;;5052480;28;20068;-71
2021/08/27 10:35:40;;;;;;;5.83;1.60;;;17.70;86.30;;;;;;5052938;28;20143;-71
2021/08/27 10:38:05;;;;;;;7.70;2.30;;;17.40;86.80;;;;;;5053340;28;20072;-71
2021/08/27 10:40:39;;;;;;;5.77;1.50;;;17.30;87.40;;;;;;5053308;28;20079;-72
2021/08/27 10:43:05;;;;;;;6.40;1.43;;;17.20;87.30;;;;;;5052509;28;20379;-71
2021/08/27 10:45:36;;;;;;;5.30;1.50;;;17.30;87.20;;;;;;5053374;28;20159;-71
2021/08/27 10:48:15;;;;;;;5.47;1.65;;;17.30;85.40;;;;;;5052597;28;20063;-71
2021/08/27 10:51:21;;;;;;;6.20;2.13;;;17.40;84.50;;;;;;5053321;28;20056;-71
2021/08/27 10:53:54;;;;;;;8.73;2.00;;;17.50;86.50;;;;;;5052834;28;20044;-71
2021/08/27 10:56:40;;;;;;;13.17;2.40;;;17.50;87.80;;;;;;5052489;28;20045;-72
2021/08/27 10:59:08;;;;;;;8.13;2.57;;;17.50;89.00;;;;;;5053523;28;20569;-71
2021/08/27 11:01:38;;;;;;;7.53;2.33;;;17.40;89.70;;;;;;5053102;28;20084;-72
2021/08/27 11:04:12;;;;;;;12.63;2.60;;;17.30;89.80;;;;;;5051731;28;20394;-71
2021/08/27 11:07:04;;;;;;;8.50;1.73;;;17.20;90.10;;;;;;5053069;28;20144;-72
2021/08/27 11:09:31;;;;;;;5.87;2.00;;;17.10;90.00;;;;;;5047928;28;20056;-71
2021/08/27 11:12:19;;;;;;;3.87;1.50;;;17.00;90.10;;;;;;5053438;28;20103;-71
2021/08/27 11:14:52;;;;;;;5.63;1.97;;;16.80;90.10;;;;;;5052610;28;20068;-72
2021/08/27 11:17:18;;;;;;;11.60;1.97;;;16.80;90.40;;;;;;5051816;28;20041;-71
2021/08/27 11:19:49;;;;;;;8.77;2.10;;;16.80;90.40;;;;;;5052435;28;20093;-71
2021/08/27 11:22:25;;;;;;;9.13;2.10;;;16.90;90.00;;;;;;5051797;28;20048;-72
2021/08/27 11:25:07;;;;;;;7.23;1.40;;;17.00;89.40;;;;;;5051714;28;20041;-72
2021/08/27 11:27:34;;;;;;;10.90;1.93;;;17.20;89.10;;;;;;5052590;28;20103;-71
2021/08/27 11:30:28;;;;;;;7.63;1.80;;;17.30;88.80;;;;;;5051702;28;20052;-71
2021/08/27 11:32:55;;;;;;;11.23;2.40;;;17.50;87.40;;;;;;5050737;28;20045;-71
2021/08/27 11:35:22;;;;;;;9.60;2.20;;;17.60;87.70;;;;;;5052144;28;20045;-70
2021/08/27 11:37:55;;;;;;;7.43;1.93;;;17.80;87.10;;;;;;5051257;28;20037;-71
2021/08/27 11:40:21;;;;;;;5.87;1.80;;;17.90;86.30;;;;;;5050741;28;20053;-71
2021/08/27 11:42:47;;;;;;;11.97;2.00;;;18.10;85.50;;;;;;5051420;28;20041;-71
2021/08/27 11:45:16;;;;;;;5.53;1.60;;;18.10;85.00;;;;;;5051398;28;20088;-71
2021/08/27 11:47:51;;;;;;;5.10;1.23;;;18.10;83.70;;;;;;5050494;28;20048;-70
2021/08/27 11:50:23;;;;;;;6.60;1.37;;;18.20;81.80;;;;;;5051968;28;20397;-71
2021/08/27 11:52:57;;;;;;;4.23;1.30;;;18.40;79.90;;;;;;5050852;28;20446;-71
2021/08/27 11:55:23;;;;;;;4.87;1.17;;;18.50;77.90;;;;;;5051521;28;20077;-71
2021/08/27 11:57:52;;;;;;;7.07;1.33;;;18.70;77.70;;;;;;5051540;28;20083;-70
2021/08/27 12:00:22;;;;;;;4.97;1.30;;;18.80;76.50;;;;;;5051639;28;20063;-70
2021/08/27 12:02:55;;;;;;;5.10;1.37;;;18.90;76.40;;;;;;5050440;28;20041;-71
2021/08/27 12:05:21;;;;;;;8.27;1.73;;;18.80;76.40;;;;;;5051069;28;20043;-71
2021/08/27 12:07:55;;;;;;;9.77;2.03;;;18.70;77.60;;;;;;5051603;28;20056;-71
2021/08/27 12:10:22;;;;;;;8.17;1.70;;;18.60;77.80;;;;;;5051842;28;20117;-71
2021/08/27 12:12:50;;;;;;;6.47;1.70;;;18.40;79.00;;;;;;5050897;28;20112;-71
2021/08/27 12:15:29;;;;;;;9.00;2.00;;;18.30;80.00;;;;;;5051667;28;20084;-71
2021/08/27 12:18:05;;;;;;;8.30;1.80;;;18.20;80.80;;;;;;5050372;28;20356;-71
2021/08/27 12:20:35;;;;;;;9.73;2.07;;;18.10;81.90;;;;;;5049592;28;20081;-71
2021/08/27 12:23:09;;;;;;;8.87;2.20;;;18.00;82.00;;;;;;5051249;28;20479;-71
2021/08/27 12:25:40;;;;;;;6.97;2.13;;;18.00;82.30;;;;;;5051579;28;20132;-71
2021/08/27 12:28:06;;;;;;;6.88;1.80;;;18.00;82.50;;;;;;5050694;28;20071;-71
2021/08/27 12:30:32;;;;;;;10.80;1.93;;;18.00;82.50;;;;;;5051548;28;20041;-72
2021/08/27 12:32:58;;;;;;;11.17;1.50;;;18.00;83.00;;;;;;5051341;28;20045;-71
2021/08/27 12:35:32;;;;;;;8.27;1.40;;;18.00;83.20;;;;;;5049164;28;20456;-71
2021/08/27 12:37:59;;;;;;;8.13;2.00;;;17.90;84.00;;;;;;5050824;28;20041;-71
2021/08/27 12:40:27;;;;;;;7.63;1.97;;;17.80;84.50;;;;;;5049182;28;20053;-71
2021/08/27 12:43:09;;;;;;;7.73;1.83;;;17.80;84.70;;;;;;5045243;28;20049;-71
2021/08/27 12:45:49;;;;;;;9.18;2.15;;;17.80;84.70;;;;;;5047379;28;20039;-72
2021/08/27 12:48:23;;;;;;;8.93;2.03;;;17.80;84.50;;;;;;5050180;28;20383;-71
2021/08/27 12:50:49;;;;;;;6.03;1.57;;;17.80;84.10;;;;;;5050651;28;20037;-70
2021/08/27 12:53:15;;;;;;;7.80;1.60;;;17.80;84.10;;;;;;5051473;28;20145;-71